createdAt,value
2019-05-09T00:00:57.020Z,9.33
2019-05-09T00:03:27.341Z,9.31
2019-05-09T00:05:57.269Z,9.22
2019-05-09T00:08:27.385Z,9.20
2019-05-09T00:10:57.322Z,9.17
2019-05-09T00:13:27.515Z,9.23
2019-05-09T00:15:57.525Z,9.18
2019-05-09T00:18:27.675Z,9.17
2019-05-09T00:21:17.639Z,9.13
2019-05-09T00:23:47.617Z,9.05
2019-05-09T00:26:17.684Z,9.05
2019-05-09T00:28:49.459Z,9.08
2019-05-09T00:31:37.490Z,9.03
2019-05-09T00:34:09.166Z,9.06
2019-05-09T00:36:40.196Z,8.97
2019-05-09T00:39:10.228Z,8.95
2019-05-09T00:41:40.199Z,9.02
2019-05-09T00:44:17.628Z,8.97
2019-05-09T00:46:49.491Z,8.97
2019-05-09T00:49:23.422Z,8.99
2019-05-09T00:51:54.031Z,8.92
2019-05-09T00:54:24.675Z,8.93
2019-05-09T00:56:54.701Z,8.91
2019-05-09T00:59:24.742Z,8.93
2019-05-09T01:01:54.943Z,8.96
2019-05-09T01:04:24.846Z,8.93
2019-05-09T01:06:54.851Z,8.85
2019-05-09T01:09:24.808Z,8.78
2019-05-09T01:11:55.032Z,8.75
2019-05-09T01:14:25.038Z,8.76
2019-05-09T01:16:55.281Z,8.80
2019-05-09T01:19:25.288Z,8.74
2019-05-09T01:21:55.328Z,8.73
2019-05-09T01:24:25.346Z,8.72
2019-05-09T01:26:55.385Z,8.70
2019-05-09T01:29:25.387Z,8.72
2019-05-09T01:31:57.250Z,8.73
2019-05-09T01:34:28.909Z,8.77
2019-05-09T01:37:06.773Z,8.75
2019-05-09T01:39:37.483Z,8.76
2019-05-09T01:42:08.222Z,8.74
2019-05-09T01:44:38.291Z,8.75
2019-05-09T01:47:08.433Z,8.73
2019-05-09T01:49:38.865Z,8.69
2019-05-09T01:52:09.093Z,8.61
2019-05-09T01:54:40.804Z,8.66
2019-05-09T01:57:11.155Z,8.68
2019-05-09T01:59:41.202Z,8.68
2019-05-09T02:02:11.433Z,8.67
2019-05-09T02:04:41.372Z,8.67
2019-05-09T02:07:13.300Z,8.71
2019-05-09T02:09:43.522Z,8.75
2019-05-09T02:12:14.288Z,8.73
2019-05-09T02:14:46.145Z,8.77
2019-05-09T02:17:23.559Z,8.78
2019-05-09T02:19:53.657Z,8.81
2019-05-09T02:22:36.593Z,8.82
2019-05-09T02:25:08.995Z,8.83
2019-05-09T02:27:39.072Z,8.83
2019-05-09T02:30:11.691Z,8.83
2019-05-09T02:32:45.009Z,8.86
2019-05-09T02:35:15.271Z,8.87
2019-05-09T02:37:45.510Z,8.88
2019-05-09T02:40:18.730Z,8.86
2019-05-09T02:42:49.696Z,8.85
2019-05-09T02:45:20.471Z,8.88
2019-05-09T02:47:50.714Z,8.87
2019-05-09T02:50:21.913Z,8.89
2019-05-09T02:52:52.184Z,8.87
2019-05-09T02:55:22.189Z,8.86
2019-05-09T02:57:55.510Z,8.86
2019-05-09T03:00:39.499Z,8.86
2019-05-09T03:03:15.634Z,8.85
2019-05-09T03:05:48.510Z,8.84
2019-05-09T03:08:19.236Z,8.83
2019-05-09T03:10:50.172Z,8.83
2019-05-09T03:13:20.397Z,8.85
2019-05-09T03:15:52.044Z,8.84
2019-05-09T03:18:22.153Z,8.85
2019-05-09T03:20:59.878Z,8.85
2019-05-09T03:23:29.930Z,8.83
2019-05-09T03:26:00.262Z,8.83
2019-05-09T03:28:39.059Z,8.85
2019-05-09T03:31:10.822Z,8.86
2019-05-09T03:33:41.159Z,8.86
2019-05-09T03:36:11.515Z,8.87
2019-05-09T03:38:41.695Z,8.89
2019-05-09T03:41:12.299Z,8.88
2019-05-09T03:43:42.339Z,8.85
2019-05-09T03:46:14.013Z,8.84
2019-05-09T03:48:58.335Z,8.82
2019-05-09T03:51:28.589Z,8.79
2019-05-09T03:53:58.663Z,8.78
2019-05-09T03:56:30.474Z,8.67
2019-05-09T03:59:00.480Z,8.65
2019-05-09T04:01:30.521Z,8.63
2019-05-09T04:04:00.591Z,8.59
2019-05-09T04:06:31.199Z,8.55
2019-05-09T04:09:01.133Z,8.49
2019-05-09T04:11:32.738Z,8.46
2019-05-09T04:14:08.328Z,8.46
2019-05-09T04:16:38.833Z,8.45
2019-05-09T04:19:08.856Z,8.42
2019-05-09T04:21:38.979Z,8.39
2019-05-09T04:24:08.911Z,8.37
2019-05-09T04:29:32.255Z,8.40
2019-05-09T04:32:02.264Z,8.24
2019-05-09T04:34:32.306Z,8.24
2019-05-09T04:37:02.250Z,8.19
2019-05-09T04:39:32.290Z,8.18
2019-05-09T04:42:05.350Z,8.17
2019-05-09T04:44:37.519Z,8.15
2019-05-09T04:47:08.909Z,8.09
2019-05-09T04:49:43.805Z,8.08
2019-05-09T04:52:11.112Z,8.08
2019-05-09T04:54:41.292Z,8.08
2019-05-09T04:57:11.316Z,8.09
2019-05-09T04:59:41.283Z,8.07
2019-05-09T05:02:12.931Z,8.03
2019-05-09T05:04:42.971Z,8.03
2019-05-09T05:07:13.038Z,8.04
2019-05-09T05:09:43.062Z,8.08
2019-05-09T05:12:13.088Z,8.15
2019-05-09T05:14:43.117Z,8.20
2019-05-09T05:17:13.337Z,8.26
2019-05-09T05:19:43.232Z,8.32
2019-05-09T05:22:15.017Z,8.44
2019-05-09T05:24:48.778Z,8.57
2019-05-09T05:27:19.020Z,8.69
2019-05-09T05:29:49.169Z,8.86
2019-05-09T05:32:20.834Z,9.00
2019-05-09T05:35:09.847Z,9.14
2019-05-09T05:37:39.851Z,9.24
2019-05-09T05:40:33.623Z,9.28
2019-05-09T05:43:03.670Z,9.38
2019-05-09T05:45:37.436Z,9.52
2019-05-09T05:48:11.127Z,9.64
2019-05-09T05:50:40.076Z,9.76
2019-05-09T05:53:09.778Z,9.89
2019-05-09T05:55:39.781Z,9.99
2019-05-09T05:58:09.704Z,10.07
2019-05-09T06:00:42.255Z,10.19
2019-05-09T06:03:12.458Z,10.28
2019-05-09T06:05:43.348Z,10.42
2019-05-09T06:08:13.287Z,10.52
2019-05-09T06:10:43.977Z,10.66
2019-05-09T06:13:13.999Z,10.72
2019-05-09T06:15:44.152Z,10.80
2019-05-09T06:18:14.230Z,10.96
2019-05-09T06:20:45.698Z,10.99
2019-05-09T06:23:17.599Z,11.11
2019-05-09T06:25:48.584Z,11.15
2019-05-09T06:28:19.694Z,11.27
2019-05-09T06:30:50.070Z,11.37
2019-05-09T06:33:20.081Z,11.52
2019-05-09T06:35:50.205Z,11.66
2019-05-09T06:38:20.227Z,11.80
2019-05-09T06:40:50.266Z,11.82
2019-05-09T06:43:21.912Z,11.88
2019-05-09T06:46:02.575Z,11.99
2019-05-09T06:48:33.700Z,12.08
2019-05-09T06:51:03.899Z,12.05
2019-05-09T06:53:34.454Z,12.08
2019-05-09T06:56:04.601Z,12.23
2019-05-09T06:58:40.478Z,12.34
2019-05-09T07:01:28.626Z,12.51
2019-05-09T07:04:09.581Z,12.61
2019-05-09T07:06:48.090Z,12.61
2019-05-09T07:09:28.106Z,12.80
2019-05-09T07:11:58.833Z,12.84
2019-05-09T07:14:40.987Z,12.79
2019-05-09T07:17:11.936Z,12.86
2019-05-09T07:19:43.871Z,13.04
2019-05-09T07:22:24.469Z,13.02
2019-05-09T07:25:11.113Z,13.12
2019-05-09T07:27:41.961Z,13.14
2019-05-09T07:30:23.947Z,13.35
2019-05-09T07:33:11.551Z,13.30
2019-05-09T07:35:41.833Z,13.41
2019-05-09T07:38:11.809Z,13.44
2019-05-09T07:40:41.964Z,13.62
2019-05-09T07:43:11.983Z,13.73
2019-05-09T07:45:43.558Z,13.78
2019-05-09T07:48:13.531Z,14.01
2019-05-09T07:50:43.548Z,14.03
2019-05-09T07:53:13.596Z,14.03
2019-05-09T07:55:43.610Z,14.16
2019-05-09T07:58:14.403Z,14.29
2019-05-09T08:00:44.914Z,14.34
2019-05-09T08:03:14.935Z,14.42
2019-05-09T08:05:45.053Z,14.64
2019-05-09T08:08:18.717Z,14.49
2019-05-09T08:10:48.871Z,14.58
2019-05-09T08:13:21.414Z,14.62
2019-05-09T08:15:50.683Z,14.67
2019-05-09T08:18:20.805Z,14.84
2019-05-09T08:20:50.876Z,14.94
2019-05-09T08:23:20.954Z,14.93
2019-05-09T08:25:51.067Z,14.96
2019-05-09T08:28:21.093Z,14.91
2019-05-09T08:30:51.116Z,14.91
2019-05-09T08:33:23.503Z,15.08
2019-05-09T08:35:53.836Z,15.16
2019-05-09T08:38:30.529Z,15.20
2019-05-09T08:41:13.142Z,15.16
2019-05-09T08:43:44.102Z,15.30
2019-05-09T08:46:14.314Z,15.36
2019-05-09T08:48:44.396Z,15.45
2019-05-09T08:51:18.115Z,15.69
2019-05-09T08:53:48.531Z,15.72
2019-05-09T08:56:18.501Z,15.75
2019-05-09T08:58:49.608Z,16.19
2019-05-09T09:01:30.599Z,16.11
2019-05-09T09:03:51.484Z,16.35
2019-05-09T09:06:22.791Z,16.57
2019-05-09T09:08:52.859Z,16.65
2019-05-09T09:11:22.876Z,16.72
2019-05-09T09:13:53.107Z,17.00
2019-05-09T09:16:23.007Z,16.96
2019-05-09T09:18:54.300Z,16.86
2019-05-09T09:21:24.204Z,16.55
2019-05-09T09:23:54.298Z,16.60
2019-05-09T09:26:24.549Z,16.59
2019-05-09T09:28:54.520Z,16.73
2019-05-09T09:31:24.486Z,16.73
2019-05-09T09:33:54.567Z,16.61
2019-05-09T09:36:24.649Z,16.89
2019-05-09T09:38:54.667Z,16.86
2019-05-09T09:41:24.711Z,17.13
2019-05-09T09:43:54.662Z,17.55
2019-05-09T09:46:24.558Z,17.91
2019-05-09T09:48:54.566Z,17.78
2019-05-09T09:51:24.568Z,17.70
2019-05-09T09:53:54.595Z,17.51
2019-05-09T09:56:24.516Z,17.26
2019-05-09T09:59:08.267Z,16.94
2019-05-09T10:01:40.159Z,17.51
2019-05-09T10:04:24.025Z,17.51
2019-05-09T10:06:52.965Z,17.84
2019-05-09T10:09:21.538Z,18.00
2019-05-09T10:11:51.583Z,18.11
2019-05-09T10:14:23.600Z,17.96
2019-05-09T10:17:01.248Z,18.06
2019-05-09T10:19:49.255Z,17.76
2019-05-09T10:22:25.760Z,17.64
2019-05-09T10:24:59.231Z,17.88
2019-05-09T10:27:31.849Z,17.79
2019-05-09T10:30:04.329Z,17.96
2019-05-09T10:32:35.204Z,18.04
2019-05-09T10:35:08.719Z,17.92
2019-05-09T10:37:48.654Z,17.65
2019-05-09T10:40:23.968Z,17.60
2019-05-09T10:42:58.796Z,17.30
2019-05-09T10:45:31.214Z,17.16
2019-05-09T10:48:01.318Z,17.06
2019-05-09T10:50:33.680Z,16.82
2019-05-09T10:53:03.500Z,16.68
2019-05-09T10:55:38.237Z,16.68
2019-05-09T10:58:08.086Z,16.60
2019-05-09T11:00:39.595Z,16.50
2019-05-09T11:03:09.772Z,16.53
2019-05-09T11:05:40.046Z,16.35
2019-05-09T11:08:09.948Z,16.29
2019-05-09T11:10:40.045Z,16.13
2019-05-09T11:13:09.916Z,16.00
2019-05-09T11:15:39.955Z,15.79
2019-05-09T11:18:09.885Z,15.54
2019-05-09T11:20:39.894Z,15.12
2019-05-09T11:23:09.936Z,15.02
2019-05-09T11:25:39.994Z,14.87
2019-05-09T11:28:14.364Z,14.73
2019-05-09T11:30:41.753Z,14.66
2019-05-09T11:33:11.826Z,14.42
2019-05-09T11:35:41.791Z,14.12
2019-05-09T11:38:11.916Z,14.00
2019-05-09T11:40:42.180Z,13.91
2019-05-09T11:43:12.186Z,13.90
2019-05-09T11:45:42.085Z,14.03
2019-05-09T11:48:12.104Z,14.35
2019-05-09T11:50:42.083Z,14.73
2019-05-09T11:53:12.091Z,15.12
2019-05-09T11:55:43.342Z,15.47
2019-05-09T11:58:13.652Z,15.74
2019-05-09T12:00:43.917Z,15.91
2019-05-09T12:03:14.969Z,16.25
2019-05-09T12:05:47.725Z,16.29
2019-05-09T12:08:21.577Z,16.57
2019-05-09T12:10:52.424Z,16.94
2019-05-09T12:13:22.432Z,17.17
2019-05-09T12:15:52.610Z,17.55
2019-05-09T12:18:25.534Z,17.92
2019-05-09T12:20:57.682Z,18.71
2019-05-09T12:23:29.716Z,19.56
2019-05-09T12:26:08.157Z,19.88
2019-05-09T12:28:38.802Z,20.06
2019-05-09T12:31:08.830Z,19.84
2019-05-09T12:33:40.187Z,20.07
2019-05-09T12:36:10.957Z,20.11
2019-05-09T12:38:45.829Z,19.75
2019-05-09T12:41:18.668Z,19.94
2019-05-09T12:43:54.318Z,19.57
2019-05-09T12:46:28.170Z,19.71
2019-05-09T12:48:59.306Z,19.59
2019-05-09T12:51:30.996Z,19.56
2019-05-09T12:54:04.531Z,18.86
2019-05-09T12:56:38.628Z,18.82
2019-05-09T12:59:13.558Z,18.93
2019-05-09T13:01:49.102Z,19.16
2019-05-09T13:04:22.656Z,18.84
2019-05-09T13:07:02.798Z,18.62
2019-05-09T13:09:41.779Z,18.39
2019-05-09T13:12:22.066Z,18.81
2019-05-09T13:14:58.771Z,18.89
2019-05-09T13:17:38.414Z,18.98
2019-05-09T13:20:13.230Z,18.82
2019-05-09T13:23:09.740Z,18.70
2019-05-09T13:25:50.383Z,18.53
2019-05-09T13:28:29.581Z,18.59
2019-05-09T13:31:09.505Z,18.65
2019-05-09T13:33:45.312Z,18.82
2019-05-09T13:36:20.794Z,19.18
2019-05-09T13:39:03.889Z,19.02
2019-05-09T13:41:39.772Z,19.17
2019-05-09T13:44:19.223Z,19.41
2019-05-09T13:46:53.124Z,19.21
2019-05-09T13:49:24.435Z,19.02
2019-05-09T13:52:03.532Z,19.01
2019-05-09T13:54:28.582Z,19.37
2019-05-09T13:57:01.520Z,19.63
2019-05-09T13:59:30.767Z,19.64
2019-05-09T14:02:01.983Z,19.64
2019-05-09T14:04:32.835Z,19.42
2019-05-09T14:07:03.998Z,19.65
2019-05-09T14:09:34.027Z,19.68
2019-05-09T14:12:05.099Z,19.42
2019-05-09T14:14:35.073Z,18.81
2019-05-09T14:17:05.177Z,18.62
2019-05-09T14:19:45.720Z,18.34
2019-05-09T14:22:08.969Z,18.42
2019-05-09T14:24:38.989Z,18.48
2019-05-09T14:27:08.953Z,18.44
2019-05-09T14:29:39.315Z,18.25
2019-05-09T14:32:09.431Z,18.22
2019-05-09T14:34:42.742Z,18.29
2019-05-09T14:37:11.178Z,18.38
2019-05-09T14:39:54.994Z,18.36
2019-05-09T14:42:13.178Z,18.07
2019-05-09T14:44:43.270Z,17.82
2019-05-09T14:47:13.275Z,17.18
2019-05-09T14:49:44.602Z,17.08
2019-05-09T14:52:15.830Z,16.93
2019-05-09T14:54:48.316Z,17.02
2019-05-09T14:57:17.691Z,17.24
2019-05-09T14:59:47.663Z,17.11
2019-05-09T15:02:18.060Z,17.12
2019-05-09T15:04:48.671Z,16.98
2019-05-09T15:07:19.902Z,16.97
2019-05-09T15:09:50.399Z,17.19
2019-05-09T15:12:20.706Z,17.37
2019-05-09T15:14:52.028Z,17.19
2019-05-09T15:17:22.355Z,17.08
2019-05-09T15:19:59.579Z,17.06
2019-05-09T15:22:24.017Z,17.28
2019-05-09T15:24:53.973Z,17.60
2019-05-09T15:27:24.914Z,17.60
2019-05-09T15:29:54.926Z,17.42
2019-05-09T15:32:25.205Z,17.58
2019-05-09T15:34:57.565Z,17.58
2019-05-09T15:37:28.548Z,17.78
2019-05-09T15:39:58.924Z,17.78
2019-05-09T15:42:30.589Z,17.87
2019-05-09T15:45:00.596Z,17.97
2019-05-09T15:47:37.845Z,18.03
2019-05-09T15:50:19.259Z,18.20
2019-05-09T15:52:40.853Z,18.32
2019-05-09T15:55:11.257Z,18.36
2019-05-09T15:57:41.263Z,18.22
2019-05-09T16:00:13.934Z,18.63
2019-05-09T16:02:43.996Z,18.77
2019-05-09T16:05:14.079Z,18.67
2019-05-09T16:07:44.045Z,18.84
2019-05-09T16:10:15.132Z,19.15
2019-05-09T16:12:45.284Z,19.20
2019-05-09T16:15:18.552Z,19.22
2019-05-09T16:17:48.760Z,19.03
2019-05-09T16:20:36.454Z,18.72
2019-05-09T16:22:52.430Z,18.63
2019-05-09T16:25:22.609Z,18.45
2019-05-09T16:27:52.587Z,18.37
2019-05-09T16:30:22.986Z,18.01
2019-05-09T16:32:53.033Z,17.72
2019-05-09T16:35:23.030Z,17.73
2019-05-09T16:38:05.148Z,17.75
2019-05-09T16:40:25.213Z,17.68
2019-05-09T16:42:55.180Z,17.47
2019-05-09T16:45:25.256Z,17.68
2019-05-09T16:47:57.424Z,17.71
2019-05-09T16:50:27.036Z,17.53
2019-05-09T16:52:58.430Z,17.50
2019-05-09T16:55:31.318Z,17.31
2019-05-09T16:58:01.729Z,17.30
2019-05-09T17:00:34.551Z,17.44
2019-05-09T17:03:08.001Z,17.24
2019-05-09T17:05:37.535Z,17.22
2019-05-09T17:08:08.152Z,17.18
2019-05-09T17:10:38.633Z,17.03
2019-05-09T17:13:08.609Z,17.02
2019-05-09T17:15:39.063Z,17.23
2019-05-09T17:18:10.088Z,17.08
2019-05-09T17:20:47.603Z,17.19
2019-05-09T17:23:21.673Z,17.41
2019-05-09T17:25:51.693Z,17.46
2019-05-09T17:28:21.781Z,17.24
2019-05-09T17:30:51.841Z,17.03
2019-05-09T17:33:21.856Z,16.78
2019-05-09T17:35:51.966Z,16.90
2019-05-09T17:38:21.937Z,16.90
2019-05-09T17:40:51.948Z,16.93
2019-05-09T17:43:21.922Z,16.88
2019-05-09T17:45:51.930Z,16.74
2019-05-09T17:48:22.884Z,16.47
2019-05-09T17:50:53.895Z,16.37
2019-05-09T17:53:24.387Z,16.15
2019-05-09T17:55:54.349Z,16.05
2019-05-09T17:58:29.820Z,15.98
2019-05-09T18:00:57.704Z,15.79
2019-05-09T18:03:29.174Z,15.79
2019-05-09T18:05:59.526Z,15.76
2019-05-09T18:08:29.500Z,15.69
2019-05-09T18:10:59.526Z,15.77
2019-05-09T18:13:31.693Z,15.66
2019-05-09T18:16:02.266Z,15.61
2019-05-09T18:18:32.355Z,15.60
2019-05-09T18:21:02.337Z,15.60
2019-05-09T18:23:32.329Z,15.56
2019-05-09T18:26:02.327Z,15.52
2019-05-09T18:28:32.301Z,15.56
2019-05-09T18:31:02.324Z,15.35
2019-05-09T18:33:37.981Z,15.35
2019-05-09T18:36:09.324Z,15.28
2019-05-09T18:38:39.373Z,15.25
2019-05-09T18:41:10.243Z,15.15
2019-05-09T18:43:40.385Z,15.17
2019-05-09T18:46:10.399Z,15.13
2019-05-09T18:48:40.309Z,15.08
2019-05-09T18:51:10.380Z,15.06
2019-05-09T18:53:40.355Z,15.12
2019-05-09T18:56:10.457Z,15.02
2019-05-09T18:58:40.506Z,14.95
2019-05-09T19:01:10.586Z,15.01
2019-05-09T19:03:40.554Z,15.04
2019-05-09T19:06:10.569Z,15.01
2019-05-09T19:08:40.547Z,14.93
2019-05-09T19:11:10.619Z,14.96
2019-05-09T19:13:40.599Z,14.91
2019-05-09T19:16:14.890Z,14.77
2019-05-09T19:18:45.410Z,14.70
2019-05-09T19:21:20.941Z,14.70
2019-05-09T19:23:50.927Z,14.52
2019-05-09T19:26:35.806Z,14.51
2019-05-09T19:29:09.384Z,14.61
2019-05-09T19:31:40.075Z,14.55
2019-05-09T19:34:10.043Z,14.45
2019-05-09T19:36:40.050Z,14.54
2019-05-09T19:39:10.437Z,14.56
2019-05-09T19:41:40.756Z,14.55
2019-05-09T19:44:10.792Z,14.59
2019-05-09T19:46:42.070Z,14.61
2019-05-09T19:49:12.205Z,14.56
2019-05-09T19:51:42.226Z,14.51
2019-05-09T19:54:12.193Z,14.53
2019-05-09T19:56:42.196Z,14.51
2019-05-09T19:59:13.140Z,14.54
2019-05-09T20:01:43.179Z,14.41
2019-05-09T20:04:13.221Z,14.45
2019-05-09T20:06:43.244Z,14.42
2019-05-09T20:09:14.858Z,14.38
2019-05-09T20:12:02.605Z,14.23
2019-05-09T20:14:35.443Z,14.32
2019-05-09T20:17:05.538Z,14.28
2019-05-09T20:19:35.512Z,14.21
2019-05-09T20:22:05.632Z,14.12
2019-05-09T20:24:35.712Z,14.07
2019-05-09T20:27:05.857Z,14.06
2019-05-09T20:29:35.892Z,13.99
2019-05-09T20:32:05.966Z,13.78
2019-05-09T20:34:36.031Z,13.86
2019-05-09T20:37:06.031Z,13.84
2019-05-09T20:39:36.175Z,13.83
2019-05-09T20:42:06.435Z,13.86
2019-05-09T20:44:36.670Z,13.79
2019-05-09T20:47:07.046Z,13.84
2019-05-09T20:49:37.219Z,13.80
2019-05-09T20:52:07.485Z,13.80
2019-05-09T20:54:37.714Z,13.89
2019-05-09T20:57:07.902Z,13.83
2019-05-09T20:59:38.085Z,13.67
2019-05-09T21:02:08.243Z,13.64
2019-05-09T21:04:38.366Z,13.60
2019-05-09T21:07:08.526Z,13.52
2019-05-09T21:09:38.653Z,13.55
2019-05-09T21:12:11.129Z,13.52
2019-05-09T21:14:40.689Z,13.66
2019-05-09T21:17:10.958Z,13.65
2019-05-09T21:19:41.190Z,13.73
2019-05-09T21:22:11.455Z,13.65
2019-05-09T21:24:41.716Z,13.60
2019-05-09T21:27:11.865Z,13.57
2019-05-09T21:29:42.057Z,13.45
2019-05-09T21:32:12.206Z,13.42
2019-05-09T21:34:43.484Z,13.48
2019-05-09T21:37:14.554Z,13.27
2019-05-09T21:39:44.593Z,13.29
2019-05-09T21:42:14.669Z,13.29
2019-05-09T21:44:44.638Z,13.34
2019-05-09T21:47:14.641Z,13.34
2019-05-09T21:49:44.678Z,13.29
2019-05-09T21:52:14.682Z,13.29
2019-05-09T21:54:44.655Z,13.23
2019-05-09T21:57:14.696Z,13.29
2019-05-09T21:59:44.761Z,13.22
2019-05-09T22:02:15.498Z,13.20
2019-05-09T22:04:45.642Z,13.12
2019-05-09T22:07:15.657Z,13.10
2019-05-09T22:09:45.630Z,13.15
2019-05-09T22:12:15.639Z,13.15
2019-05-09T22:14:45.667Z,13.06
2019-05-09T22:17:17.386Z,13.12
2019-05-09T22:19:47.567Z,13.11
2019-05-09T22:22:17.575Z,13.10
2019-05-09T22:24:47.548Z,13.08
2019-05-09T22:27:18.667Z,13.09
2019-05-09T22:29:48.596Z,13.06
2019-05-09T22:32:21.913Z,13.02
2019-05-09T22:34:50.414Z,12.98
2019-05-09T22:37:20.423Z,12.97
2019-05-09T22:39:50.410Z,12.95
2019-05-09T22:42:20.427Z,12.94
2019-05-09T22:44:50.733Z,13.04
2019-05-09T22:47:20.739Z,13.00
2019-05-09T22:49:52.713Z,12.98
2019-05-09T22:52:22.553Z,12.96
2019-05-09T22:54:52.558Z,12.85
2019-05-09T22:57:22.528Z,12.91
2019-05-09T22:59:52.547Z,12.96
2019-05-09T23:02:22.508Z,12.83
2019-05-09T23:04:52.518Z,12.87
2019-05-09T23:07:22.495Z,12.82
2019-05-09T23:09:52.574Z,12.84
2019-05-09T23:12:22.568Z,12.85
2019-05-09T23:14:52.542Z,12.89
2019-05-09T23:17:22.557Z,12.86
2019-05-09T23:19:52.525Z,12.78
2019-05-09T23:22:24.101Z,12.76
2019-05-09T23:24:54.070Z,12.81
2019-05-09T23:27:24.145Z,12.78
2019-05-09T23:29:54.040Z,12.72
2019-05-09T23:32:25.693Z,12.71
2019-05-09T23:34:55.678Z,12.78
2019-05-09T23:37:25.763Z,12.77
2019-05-09T23:39:57.434Z,12.73
2019-05-09T23:42:27.437Z,12.78
2019-05-09T23:44:57.408Z,12.66
2019-05-09T23:47:27.418Z,12.67
2019-05-09T23:49:57.391Z,12.67
2019-05-09T23:52:27.404Z,12.73
2019-05-09T23:55:15.358Z,12.73
2019-05-09T23:58:02.990Z,12.67
